Airfield :
LOGIN :

Register | Disclaimer

   EN    FR    IT 

 










Legend :    VFR   Marginal VFR   IFR   Intensive IFR   Very Intensive IFR
Visi :
Ceiling :
>= 8 km
>= 3000ft
5 to 8 km
1000 to 3000 ft
1500m to 5 km
500 to 1000 ft
800 to 1500m
200 to 500 ft
< 800m
< 200 ft
Symbols :   Thunderstorms  Fog  Heavy snow  Heavy precipitations  Wind > 20 kt
SIGMETs :     Misc.  Thunderstorms  Icing  Turbulence  Mountain Waves  Volcanic Ashes






- Airport Elevation : 242 ft
- IATA code : DUB


EIDW - Dublin

CURRENT METAR :
  • 282230Z 25011G22KT 200V280 9999 FEW018 BKN042 13/10 Q1006 NOSIG

EXPIRED METARs :
  • 282200Z 25011KT 200V280 9999 FEW018 SCT026 BKN038 13/09 Q1006 NOSIG
  • 282130Z 25009KT 210V290 9999 FEW018 SCT024 BKN033 13/09 Q1006 NOSIG
  • 282100Z 24009KT 200V280 9999 FEW018 SCT032 BKN050 14/09 Q1005 NOSIG
  • 282030Z 24007KT 190V280 9999 FEW018 BKN050 14/09 Q1005 NOSIG
  • 282000Z 25009KT 200V280 9999 FEW018 BKN060 BKN200 14/09 Q1005 NOSIG
  • 281930Z 25011KT 210V290 9999 FEW018 BKN060 14/08 Q1005 NOSIG
  • 281900Z 26010KT 220V290 9999 FEW018 BKN060 15/08 Q1005 NOSIG
  • 281830Z 25011G22KT 200V280 9999 FEW018 BKN045 15/09 Q1005 NOSIG

TAF TAF EIDW
Valid from the 28 at 18:00 until the 29 at 18:00 UTC


281700Z 2818/2918 26011KT 9999 FEW015 BKN035
PROB30
TEMPO 2818/2820 26015G25KT -SHRA FEW018CB
PROB30
TEMPO 2904/2908 4000 -SHRA BKN012
BECMG 2910/2912 30010KT
PROB40
TEMPO 2914/2918 30015G25KT -SHRA FEW018CB



MET'MAP, your aeronautical weather chart ! - Copyright ORBIFLY December 2007 - Disclaimer

ORBIFLY MET'MAP TEAM :

Programming & Development : Alexandra Zaïnal
Original concept : Baudouin d'Aumeries
Technical & hardware support : Manuel Goepfert
Assistance : Marc-Olivier Méhu




SOURCES & CREDITS :

   NOAA